Prospect Creek, Prospect Cree, AK

7:56 PM AKDT on July 11, 2014 (GMT -0800)
Bettles (PABT) Elev 643 ft | 66.91 °N, 151.53 °W | Change Station

Current weather conditions updated 39 minutes ago

Overcast
Overcast
59 °F
Feels Like 59 °F
N
0
Wind Variable Wind from North

Tomorrow is forecast to be nearly the same temperature as today. Light rain.

Today
High -- | Low -- °F
--% Chance of Precip.
Yesterday
High -- | Low -- °F
Precip. -- in
2:45 AM 1:22 AM
Full, 100% visible
Pressure 29.59 in
Visibility 7.0 miles
Clouds Mostly Cloudy 800 ft
Mostly Cloudy 2600 ft
Overcast 6500 ft
Dew Point 56 °F
Humidity 90%
Rainfall 0.51 in
Snow Depth 0 in
UV 1 out of 12
Pollen Not available.
Air Quality Not available.
Flu Activity Sporadic
SPECI PABT 120317Z 00000KT 7SM BKN008 BKN026 OVC065 15/13 A2959 RMK AO2 RAE12 P0000 T01500133

More Conditions Fewer Conditions

Pressure 29.59 in
Visibility 7.0 miles
Clouds Mostly Cloudy 800 ft
Mostly Cloudy 2600 ft
Overcast 6500 ft
Dew Point 56 °F
Humidity 90%
Rainfall 0.51 in
Snow Depth 0 in
UV 1 out of 12
Pollen Not available.
Air Quality Not available.
Flu Activity Sporadic
SPECI PABT 120317Z 00000KT 7SM BKN008 BKN026 OVC065 15/13 A2959 RMK AO2 RAE12 P0000 T01500133

More Conditions Fewer Conditions

10-Day Weather Forecast

Almanac

Astronomy

Jul. 11, 2014 Rise Set
Actual Time 2:45 AM AKDT 1:22 AM AKDT
Civil Twilight Sun does not rise Sun does not rise
Nautical Twilight Sun does not rise Sun does not rise
Astronomical Twilight Sun does not rise Sun does not rise
Moon 11:05 PM AKDT (7/11) 3:36 AM AKDT (7/11)
Length of Visible Light 24h 00m
Length of Day
22h 37m
Tomorrow will be 15m 39s shorter.
Full, 100% of the Moon is Illuminated
Today
Full
Jul 12
Full
Jul 18
Last Quarter
Jul 26
New
Aug 3
First Quarter

Today's Extremes

State Highs State Lows

Community

WunderPhotos

Upload Photos

1,732,682 photos uploaded!

Nearby

Snow Depth

Station Depth Elevation
Gobblers Knob 0 in 2030 ft
Coldfoot 0 in 1040 ft
Atigun Pass 0 in 4800 ft
Fort Yukon 2 in 430 ft
Little Chena Ridge 1 in 2000 ft

Earthquake Activity

City Distance Mag. Time & Date
No recent earthquake activity has been reported nearby.
Minimum magnitude displayed is 2.5.

Coastal Water Temperatures

Place Temperature
No Stations Reporting

Nearby Weather Stations

Station Location Temp. Dew Point Humidity Wind Precip. Elev Updated Type
APRSWXNET Jim River DOT AK, Bettles Field, AK 58 °F 53 °F 84% ESE  at  1 mph 0.00 in / hr 852 ft 5:45 PM AKDT MADIS

Show More Stations Show Fewer Stations